createdAt,value
2018-06-29T00:01:11.089Z,18.74
2018-06-29T00:03:40.437Z,18.67
2018-06-29T00:06:09.717Z,18.57
2018-06-29T00:08:38.003Z,18.65
2018-06-29T00:11:06.509Z,18.52
2018-06-29T00:13:34.783Z,18.44
2018-06-29T00:16:03.024Z,18.41
2018-06-29T00:18:31.299Z,18.41
2018-06-29T00:20:59.708Z,18.36
2018-06-29T00:23:28.034Z,18.40
2018-06-29T00:25:56.375Z,18.28
2018-06-29T00:28:25.609Z,18.24
2018-06-29T00:30:53.894Z,18.17
2018-06-29T00:33:22.147Z,18.07
2018-06-29T00:35:50.413Z,18.10
2018-06-29T00:38:18.688Z,18.04
2018-06-29T00:40:47.059Z,18.07
2018-06-29T00:43:15.333Z,18.09
2018-06-29T00:45:43.621Z,18.05
2018-06-29T00:48:11.870Z,18.00
2018-06-29T00:50:40.159Z,17.93
2018-06-29T00:53:08.436Z,17.94
2018-06-29T00:55:36.789Z,17.76
2018-06-29T00:58:05.469Z,17.84
2018-06-29T01:00:33.757Z,17.81
2018-06-29T01:03:02.026Z,17.73
2018-06-29T01:05:30.308Z,17.69
2018-06-29T01:07:58.588Z,17.89
2018-06-29T01:10:26.884Z,17.69
2018-06-29T01:12:55.177Z,17.80
2018-06-29T01:15:23.473Z,17.79
2018-06-29T01:17:51.732Z,17.72
2018-06-29T01:20:20.006Z,17.59
2018-06-29T01:22:48.303Z,17.68
2018-06-29T01:25:16.577Z,17.58
2018-06-29T01:27:44.857Z,17.64
2018-06-29T01:30:13.149Z,17.58
2018-06-29T01:32:41.413Z,17.48
2018-06-29T01:35:09.805Z,17.42
2018-06-29T01:37:38.149Z,17.45
2018-06-29T01:40:06.502Z,17.40
2018-06-29T01:42:34.773Z,17.22
2018-06-29T01:52:02.837Z,17.21
2018-06-29T01:54:32.234Z,17.20
2018-06-29T01:57:00.566Z,17.09
2018-06-29T01:59:28.817Z,17.11
2018-06-29T02:01:57.094Z,17.06
2018-06-29T02:04:25.411Z,16.99
2018-06-29T02:06:54.672Z,16.99
2018-06-29T02:09:23.157Z,16.96
2018-06-29T02:11:51.417Z,16.97
2018-06-29T02:14:19.709Z,17.04
2018-06-29T02:16:47.960Z,17.02
2018-06-29T02:19:16.242Z,16.96
2018-06-29T02:21:44.637Z,16.91
2018-06-29T02:24:13.008Z,16.95
2018-06-29T02:26:41.293Z,16.77
2018-06-29T02:29:09.568Z,16.85
2018-06-29T02:31:37.815Z,16.83
2018-06-29T02:34:06.170Z,16.84
2018-06-29T02:36:34.350Z,16.74
2018-06-29T02:39:02.650Z,16.65
2018-06-29T02:41:30.902Z,16.77
2018-06-29T02:43:59.181Z,16.77
2018-06-29T02:46:27.440Z,16.62
2018-06-29T02:48:56.781Z,16.71
2018-06-29T02:51:25.047Z,16.64
2018-06-29T02:53:53.371Z,16.62
2018-06-29T02:56:21.608Z,16.69
2018-06-29T02:58:49.875Z,16.62
2018-06-29T03:01:18.192Z,16.41
2018-06-29T03:03:46.441Z,16.50
2018-06-29T03:06:14.884Z,16.52
2018-06-29T03:08:43.153Z,16.46
2018-06-29T03:11:11.469Z,16.45
2018-06-29T03:13:40.754Z,16.44
2018-06-29T03:16:10.103Z,16.47
2018-06-29T03:18:38.421Z,16.36
2018-06-29T03:21:06.701Z,16.31
2018-06-29T03:23:34.947Z,16.38
2018-06-29T03:26:03.247Z,16.44
2018-06-29T03:28:31.494Z,16.29
2018-06-29T03:30:59.787Z,16.31
2018-06-29T03:33:28.050Z,16.27
2018-06-29T03:35:56.336Z,16.32
2018-06-29T03:38:24.596Z,16.31
2018-06-29T03:40:52.886Z,16.41
2018-06-29T03:43:21.137Z,16.06
2018-06-29T03:45:49.413Z,16.27
2018-06-29T03:48:17.664Z,16.28
2018-06-29T03:50:45.913Z,16.28
2018-06-29T03:53:14.222Z,16.37
2018-06-29T03:55:43.494Z,16.40
2018-06-29T03:58:11.785Z,16.41
2018-06-29T04:00:40.033Z,16.37
2018-06-29T04:03:08.293Z,16.31
2018-06-29T04:05:36.792Z,16.54
2018-06-29T04:08:05.201Z,16.57
2018-06-29T04:10:33.445Z,16.65
2018-06-29T04:13:01.753Z,16.66
2018-06-29T04:15:29.998Z,16.71
2018-06-29T04:17:58.280Z,16.71
2018-06-29T04:20:26.529Z,16.65
2018-06-29T04:22:55.052Z,16.89
2018-06-29T04:25:23.314Z,16.88
2018-06-29T04:27:51.716Z,16.62
2018-06-29T04:30:20.077Z,16.56
2018-06-29T04:32:48.470Z,16.81
2018-06-29T04:35:17.655Z,17.02
2018-06-29T04:37:45.925Z,17.24
2018-06-29T04:40:14.217Z,16.81
2018-06-29T04:42:42.468Z,16.82
2018-06-29T04:45:12.838Z,16.73
2018-06-29T04:47:42.117Z,16.67
2018-06-29T04:50:10.417Z,16.85
2018-06-29T04:52:38.747Z,17.26
2018-06-29T04:55:07.081Z,17.56
2018-06-29T04:57:35.369Z,17.43
2018-06-29T05:00:03.701Z,17.44
2018-06-29T05:02:32.994Z,17.54
2018-06-29T05:05:01.279Z,17.87
2018-06-29T05:07:29.537Z,18.21
2018-06-29T05:09:57.822Z,18.06
2018-06-29T05:12:26.437Z,18.35
2018-06-29T05:14:54.713Z,18.48
2018-06-29T05:17:22.988Z,17.95
2018-06-29T05:19:51.386Z,18.03
2018-06-29T05:22:19.644Z,18.40
2018-06-29T05:24:47.925Z,18.81
2018-06-29T05:27:16.185Z,18.43
2018-06-29T05:29:44.468Z,18.37
2018-06-29T05:32:12.716Z,18.72
2018-06-29T05:34:41.004Z,18.76
2018-06-29T05:37:09.285Z,18.47
2018-06-29T05:39:37.529Z,18.88
2018-06-29T05:42:06.909Z,19.33
2018-06-29T05:44:36.209Z,19.03
2018-06-29T05:47:04.913Z,18.84
2018-06-29T05:49:33.101Z,18.62
2018-06-29T05:52:01.389Z,18.51
2018-06-29T05:54:29.668Z,18.43
2018-06-29T05:56:58.976Z,19.05
2018-06-29T05:59:27.263Z,19.31
2018-06-29T06:01:55.647Z,19.46
2018-06-29T06:04:23.849Z,19.41
2018-06-29T06:06:52.161Z,19.59
2018-06-29T06:09:20.430Z,19.94
2018-06-29T06:11:48.718Z,20.16
2018-06-29T06:14:16.975Z,19.93
2018-06-29T06:16:45.287Z,19.68
2018-06-29T06:19:24.852Z,19.52
2018-06-29T06:21:53.137Z,19.28
2018-06-29T06:24:21.397Z,19.34
2018-06-29T06:26:49.697Z,19.46
2018-06-29T06:29:18.017Z,19.55
2018-06-29T06:31:46.263Z,19.94
2018-06-29T06:34:14.532Z,20.19
2018-06-29T06:36:42.794Z,20.23
2018-06-29T06:39:12.293Z,20.45
2018-06-29T06:41:41.123Z,20.30
2018-06-29T06:44:09.353Z,20.67
2018-06-29T06:46:37.633Z,20.88
2018-06-29T06:49:07.933Z,20.76
2018-06-29T06:51:36.260Z,20.58
2018-06-29T06:54:04.555Z,20.29
2018-06-29T06:56:32.917Z,20.72
2018-06-29T06:59:01.233Z,20.84
2018-06-29T07:01:29.514Z,20.98
2018-06-29T07:03:57.781Z,20.41
2018-06-29T07:06:26.040Z,20.31
2018-06-29T07:08:54.320Z,20.65
2018-06-29T07:11:22.565Z,20.96
2018-06-29T07:13:50.852Z,21.39
2018-06-29T07:16:19.120Z,20.91
2018-06-29T07:18:47.365Z,21.20
2018-06-29T07:21:15.677Z,21.32
2018-06-29T07:23:43.913Z,21.71
2018-06-29T07:26:12.229Z,21.64
2018-06-29T07:28:40.617Z,21.58
2018-06-29T07:31:08.877Z,21.58
2018-06-29T07:33:37.157Z,21.79
2018-06-29T07:36:05.609Z,21.84
2018-06-29T07:38:33.907Z,22.08
2018-06-29T07:42:31.372Z,21.89
2018-06-29T07:45:00.686Z,21.50
2018-06-29T07:47:29.125Z,21.63
2018-06-29T07:49:57.417Z,21.70
2018-06-29T07:52:25.720Z,21.65
2018-06-29T07:54:54.145Z,21.68
2018-06-29T07:57:23.057Z,21.80
2018-06-29T07:59:51.312Z,21.74
2018-06-29T08:02:19.595Z,22.19
2018-06-29T08:04:47.841Z,22.44
2018-06-29T08:07:16.136Z,22.28
2018-06-29T08:09:44.397Z,22.61
2018-06-29T08:12:12.685Z,22.27
2018-06-29T08:14:41.032Z,22.11
2018-06-29T08:17:09.359Z,22.68
2018-06-29T08:19:37.675Z,22.73
2018-06-29T08:22:06.390Z,22.77
2018-06-29T08:24:35.061Z,22.82
2018-06-29T08:27:04.406Z,22.59
2018-06-29T08:29:32.685Z,22.52
2018-06-29T08:32:02.985Z,22.86
2018-06-29T08:34:31.245Z,23.06
2018-06-29T08:36:59.548Z,22.90
2018-06-29T08:39:27.802Z,22.67
2018-06-29T08:41:57.077Z,22.63
2018-06-29T08:44:25.371Z,22.78
2018-06-29T08:46:53.725Z,22.83
2018-06-29T08:49:21.937Z,22.85
2018-06-29T08:51:50.189Z,22.87
2018-06-29T08:54:18.488Z,22.84
2018-06-29T08:56:46.762Z,23.12
2018-06-29T08:59:15.069Z,23.12
2018-06-29T09:01:43.312Z,23.49
2018-06-29T09:04:11.596Z,22.92
2018-06-29T09:06:39.969Z,22.91
2018-06-29T09:09:09.301Z,22.93
2018-06-29T09:11:37.759Z,23.26
2018-06-29T09:14:06.147Z,23.01
2018-06-29T09:16:34.405Z,23.38
2018-06-29T09:19:04.840Z,23.43
2018-06-29T09:21:33.049Z,23.37
2018-06-29T09:24:01.325Z,23.23
2018-06-29T09:26:29.647Z,22.96
2018-06-29T09:28:57.917Z,22.96
2018-06-29T09:31:26.189Z,23.07
2018-06-29T09:33:54.478Z,23.06
2018-06-29T09:36:22.804Z,22.93
2018-06-29T09:38:51.005Z,23.27
2018-06-29T09:41:19.285Z,23.43
2018-06-29T09:43:47.701Z,23.55
2018-06-29T09:46:15.986Z,23.74
2018-06-29T09:48:44.244Z,23.36
2018-06-29T09:51:12.519Z,23.55
2018-06-29T09:53:40.770Z,23.51
2018-06-29T09:56:09.061Z,23.84
2018-06-29T09:58:37.352Z,23.91
2018-06-29T10:01:05.774Z,24.07
2018-06-29T10:03:34.034Z,24.04
2018-06-29T10:06:02.340Z,23.65
2018-06-29T10:08:30.590Z,23.92
2018-06-29T10:10:58.965Z,23.94
2018-06-29T10:13:27.213Z,23.95
2018-06-29T10:15:55.652Z,24.18
2018-06-29T10:18:23.901Z,24.08
2018-06-29T10:20:53.274Z,24.07
2018-06-29T10:23:21.609Z,24.09
2018-06-29T10:25:49.896Z,24.23
2018-06-29T10:28:18.153Z,24.02
2018-06-29T10:30:46.544Z,24.17
2018-06-29T10:33:16.765Z,23.99
2018-06-29T10:35:45.014Z,24.13
2018-06-29T10:38:13.292Z,24.42
2018-06-29T10:40:41.570Z,24.69
2018-06-29T10:43:12.200Z,24.63
2018-06-29T10:45:40.441Z,24.55
2018-06-29T10:48:08.745Z,24.59
2018-06-29T10:50:37.053Z,24.48
2018-06-29T10:53:05.357Z,24.63
2018-06-29T10:55:33.610Z,24.63
2018-06-29T10:58:01.912Z,24.76
2018-06-29T11:00:30.165Z,24.71
2018-06-29T11:02:58.433Z,24.22
2018-06-29T11:05:26.741Z,24.61
2018-06-29T11:07:55.419Z,24.71
2018-06-29T11:10:23.658Z,24.03
2018-06-29T11:13:07.573Z,24.04
2018-06-29T11:15:35.815Z,24.06
2018-06-29T11:18:04.137Z,23.76
2018-06-29T11:20:32.419Z,23.57
2018-06-29T11:23:00.709Z,23.73
2018-06-29T11:25:28.993Z,23.52
2018-06-29T11:27:57.275Z,23.78
2018-06-29T11:30:25.606Z,23.81
2018-06-29T11:32:53.860Z,23.44
2018-06-29T11:35:22.165Z,24.14
2018-06-29T11:37:50.425Z,24.43
2018-06-29T11:40:18.682Z,24.14
2018-06-29T11:42:47.106Z,24.23
2018-06-29T11:45:15.369Z,24.10
2018-06-29T11:47:43.646Z,23.77
2018-06-29T11:50:11.922Z,23.77
2018-06-29T11:52:40.169Z,23.64
2018-06-29T11:55:08.553Z,23.46
2018-06-29T11:57:36.817Z,23.71
2018-06-29T12:00:05.793Z,23.87
2018-06-29T12:02:34.034Z,23.84
2018-06-29T12:05:02.385Z,23.98
2018-06-29T12:07:30.624Z,23.91
2018-06-29T12:09:58.896Z,23.60
2018-06-29T12:12:27.136Z,23.42
2018-06-29T12:14:55.480Z,23.68
2018-06-29T12:17:23.717Z,23.52
2018-06-29T12:19:51.978Z,23.74
2018-06-29T12:22:20.248Z,23.82
2018-06-29T12:24:48.511Z,23.75
2018-06-29T12:27:16.784Z,24.27
2018-06-29T12:29:45.018Z,23.97
2018-06-29T12:32:13.287Z,23.74
2018-06-29T12:34:41.565Z,23.88
2018-06-29T12:37:09.834Z,23.80
2018-06-29T12:39:38.104Z,23.95
2018-06-29T12:42:06.413Z,24.04
2018-06-29T12:44:34.657Z,23.92
2018-06-29T12:47:02.933Z,23.79
2018-06-29T12:49:31.180Z,23.96
2018-06-29T12:51:59.441Z,23.95
2018-06-29T12:54:27.685Z,24.07
2018-06-29T12:56:55.949Z,24.12
2018-06-29T12:59:24.228Z,24.24
2018-06-29T13:01:52.501Z,24.21
2018-06-29T13:04:20.769Z,24.23
2018-06-29T13:06:49.082Z,23.80
2018-06-29T13:09:17.525Z,24.49
2018-06-29T13:11:45.558Z,24.07
2018-06-29T13:14:13.820Z,23.99
2018-06-29T13:16:42.117Z,24.18
2018-06-29T13:19:10.368Z,23.88
2018-06-29T13:21:38.692Z,24.13
2018-06-29T13:24:06.965Z,24.14
2018-06-29T13:26:35.214Z,23.72
2018-06-29T13:29:03.523Z,23.75
2018-06-29T13:31:31.802Z,23.54
2018-06-29T13:34:00.081Z,23.48
2018-06-29T13:36:28.355Z,23.48
2018-06-29T13:38:56.645Z,23.35
2018-06-29T13:41:24.887Z,23.45
2018-06-29T13:43:53.169Z,23.22
2018-06-29T13:46:21.434Z,23.88
2018-06-29T13:48:49.713Z,24.40
2018-06-29T13:51:17.977Z,25.77
2018-06-29T13:53:46.263Z,27.03
2018-06-29T13:56:14.676Z,29.77
2018-06-29T13:58:42.993Z,32.06
2018-06-29T14:01:11.253Z,31.91
2018-06-29T14:03:40.533Z,32.99
2018-06-29T14:06:08.849Z,33.10
2018-06-29T14:08:37.206Z,33.86
2018-06-29T14:11:05.453Z,34.29
2018-06-29T14:13:33.779Z,37.06
2018-06-29T14:16:02.033Z,35.83
2018-06-29T14:18:30.297Z,34.71
2018-06-29T14:20:58.709Z,36.33
2018-06-29T14:23:26.985Z,36.54
2018-06-29T14:25:55.336Z,39.45
2018-06-29T14:28:23.597Z,38.57
2018-06-29T14:30:51.873Z,38.17
2018-06-29T14:33:20.145Z,38.30
2018-06-29T14:35:48.438Z,37.49
2018-06-29T14:38:16.705Z,38.51
2018-06-29T14:40:44.989Z,37.64
2018-06-29T14:43:13.236Z,36.10
2018-06-29T14:45:41.517Z,35.87
2018-06-29T14:48:09.787Z,37.63
2018-06-29T14:50:39.050Z,35.72
2018-06-29T14:55:48.936Z,36.67
2018-06-29T14:58:17.233Z,35.72
2018-06-29T15:00:45.565Z,34.63
2018-06-29T15:03:14.071Z,36.61
2018-06-29T15:05:42.370Z,36.66
2018-06-29T15:08:10.650Z,37.44
2018-06-29T15:10:38.900Z,37.46
2018-06-29T15:13:08.290Z,37.95
2018-06-29T15:15:36.737Z,36.81
2018-06-29T15:18:05.240Z,35.94
2018-06-29T15:20:33.517Z,36.27
2018-06-29T15:23:01.857Z,37.15
2018-06-29T15:25:30.108Z,36.13
2018-06-29T15:27:58.533Z,37.46
2018-06-29T15:30:26.779Z,38.09
2018-06-29T15:32:55.090Z,37.25
2018-06-29T15:35:23.344Z,36.99
2018-06-29T15:37:51.653Z,37.29
2018-06-29T15:40:19.973Z,36.61
2018-06-29T15:42:48.393Z,36.77
2018-06-29T15:45:16.736Z,38.38
2018-06-29T15:47:44.984Z,37.56
2018-06-29T15:50:13.229Z,38.42
2018-06-29T15:52:41.517Z,38.61
2018-06-29T15:55:09.895Z,36.58
2018-06-29T15:57:38.169Z,36.69
2018-06-29T16:00:08.468Z,36.61
2018-06-29T16:02:36.854Z,35.11
2018-06-29T16:05:05.241Z,36.84
2018-06-29T16:07:33.502Z,37.29
2018-06-29T16:10:02.825Z,36.12
2018-06-29T16:12:31.085Z,38.88
2018-06-29T16:14:59.369Z,37.80
2018-06-29T16:17:27.629Z,38.10
2018-06-29T16:19:56.946Z,38.05
2018-06-29T16:22:25.232Z,37.22
2018-06-29T16:24:53.553Z,36.51
2018-06-29T16:27:21.833Z,37.79
2018-06-29T16:29:50.133Z,37.17
2018-06-29T16:32:18.473Z,37.90
2018-06-29T16:34:46.749Z,39.39
2018-06-29T16:37:15.156Z,39.00
2018-06-29T16:39:43.446Z,37.26
2018-06-29T16:42:11.699Z,36.45
2018-06-29T16:44:41.215Z,36.28
2018-06-29T16:47:09.421Z,37.14
2018-06-29T16:49:37.749Z,37.69
2018-06-29T16:52:06.006Z,37.47
2018-06-29T16:54:34.297Z,36.33
2018-06-29T16:57:02.546Z,35.87
2018-06-29T16:59:30.845Z,36.48
2018-06-29T17:01:59.118Z,36.13
2018-06-29T17:04:27.409Z,35.41
2018-06-29T17:06:55.689Z,35.21
2018-06-29T17:09:23.952Z,35.36
2018-06-29T17:11:52.328Z,35.51
2018-06-29T17:14:20.577Z,35.59
2018-06-29T17:16:48.860Z,34.87
2018-06-29T17:19:17.142Z,33.66
2018-06-29T17:21:45.589Z,35.71
2018-06-29T17:24:13.852Z,35.12
2018-06-29T17:26:42.829Z,36.06
2018-06-29T17:29:11.379Z,35.67
2018-06-29T17:31:39.701Z,35.12
2018-06-29T17:34:08.475Z,35.39
2018-06-29T17:36:36.672Z,35.24
2018-06-29T17:39:08.060Z,35.37
2018-06-29T17:41:36.369Z,33.64
2018-06-29T17:44:04.661Z,33.49
2018-06-29T17:46:33.029Z,32.90
2018-06-29T17:49:01.246Z,31.25
2018-06-29T17:51:29.529Z,27.91
2018-06-29T17:53:57.843Z,25.40
2018-06-29T17:56:26.041Z,24.50
2018-06-29T17:58:54.338Z,23.71
2018-06-29T18:01:22.589Z,23.13
2018-06-29T18:03:50.854Z,22.76
2018-06-29T18:06:19.121Z,22.69
2018-06-29T18:08:47.493Z,22.32
2018-06-29T18:11:15.856Z,22.07
2018-06-29T18:13:44.298Z,21.90
2018-06-29T18:16:12.629Z,21.68
2018-06-29T18:18:40.906Z,21.55
2018-06-29T18:21:09.140Z,21.74
2018-06-29T18:23:37.410Z,21.79
2018-06-29T18:26:05.665Z,21.62
2018-06-29T18:28:33.941Z,21.50
2018-06-29T18:31:02.193Z,21.58
2018-06-29T18:33:30.469Z,21.65
2018-06-29T18:35:58.725Z,21.26
2018-06-29T18:38:27.026Z,21.39
2018-06-29T18:40:55.365Z,21.26
2018-06-29T18:43:23.682Z,20.95
2018-06-29T18:45:52.029Z,21.00
2018-06-29T18:48:20.283Z,21.05
2018-06-29T18:50:48.564Z,20.86
2018-06-29T18:53:16.830Z,20.86
2018-06-29T18:55:45.138Z,20.70
2018-06-29T18:58:13.412Z,20.66
2018-06-29T19:00:41.800Z,20.48
2018-06-29T19:03:11.089Z,20.31
2018-06-29T19:05:39.382Z,20.33
2018-06-29T19:08:07.697Z,20.33
2018-06-29T19:10:35.973Z,20.44
2018-06-29T19:13:04.221Z,20.51
2018-06-29T19:15:32.513Z,20.34
2018-06-29T19:18:00.765Z,20.26
2018-06-29T19:20:29.046Z,20.14
2018-06-29T19:22:57.322Z,20.25
2018-06-29T19:25:25.894Z,20.29
2018-06-29T19:27:54.240Z,20.24
2018-06-29T19:30:22.709Z,20.15
2018-06-29T19:32:52.077Z,19.91
2018-06-29T19:35:20.594Z,19.67
2018-06-29T19:37:49.178Z,19.71
2018-06-29T19:40:17.437Z,19.73
2018-06-29T19:42:45.781Z,19.67
2018-06-29T19:45:14.055Z,19.73
2018-06-29T19:47:42.447Z,19.82
2018-06-29T19:50:10.689Z,19.60
2018-06-29T19:52:39.099Z,19.56
2018-06-29T19:55:07.389Z,19.44
2018-06-29T19:57:35.665Z,19.31
2018-06-29T20:00:04.077Z,19.20
2018-06-29T20:02:32.389Z,19.08
2018-06-29T20:05:00.646Z,18.94
2018-06-29T20:07:28.942Z,18.96
2018-06-29T20:09:57.214Z,18.89
2018-06-29T20:12:25.485Z,18.88
2018-06-29T20:14:53.733Z,18.86
2018-06-29T20:17:22.009Z,18.82
2018-06-29T20:19:50.273Z,18.81
2018-06-29T20:22:18.577Z,18.74
2018-06-29T20:24:46.854Z,18.71
2018-06-29T20:27:17.217Z,18.68
2018-06-29T20:29:45.477Z,18.65
2018-06-29T20:32:13.753Z,18.63
2018-06-29T20:34:42.010Z,18.65
2018-06-29T20:37:10.309Z,18.74
2018-06-29T20:39:38.583Z,18.74
2018-06-29T20:42:10.702Z,18.74
2018-06-29T20:44:38.988Z,18.78
2018-06-29T20:47:07.266Z,18.82
2018-06-29T20:49:35.869Z,18.70
2018-06-29T20:52:04.128Z,18.55
2018-06-29T20:54:32.418Z,18.56
2018-06-29T20:57:00.798Z,18.38
2018-06-29T20:59:30.115Z,18.40
2018-06-29T21:01:58.377Z,18.31
2018-06-29T21:04:26.683Z,18.32
2018-06-29T21:06:54.965Z,18.34
2018-06-29T21:09:23.241Z,18.43
2018-06-29T21:11:51.493Z,18.32
2018-06-29T21:14:19.781Z,18.43
2018-06-29T21:16:48.066Z,18.29
2018-06-29T21:19:16.369Z,18.19
2018-06-29T21:21:44.637Z,18.19
2018-06-29T21:24:12.917Z,18.16
2018-06-29T21:26:41.193Z,18.26
2018-06-29T21:29:09.458Z,18.24
2018-06-29T21:31:37.981Z,18.36
2018-06-29T21:34:06.257Z,18.33
2018-06-29T21:36:34.541Z,18.33
2018-06-29T21:39:02.825Z,18.46
2018-06-29T21:41:31.108Z,18.29
2018-06-29T21:43:59.392Z,18.23
2018-06-29T21:46:27.825Z,18.21
2018-06-29T21:48:56.066Z,18.17
2018-06-29T21:51:24.364Z,18.18
2018-06-29T21:53:52.665Z,18.23
2018-06-29T21:56:20.934Z,18.20
2018-06-29T21:58:49.225Z,18.24
2018-06-29T22:01:17.577Z,18.15
2018-06-29T22:03:45.849Z,18.19
2018-06-29T22:06:14.125Z,18.09
2018-06-29T22:08:42.444Z,18.05
2018-06-29T22:11:10.748Z,17.95
2018-06-29T22:13:39.013Z,18.03
2018-06-29T22:16:07.385Z,18.05
2018-06-29T22:18:35.672Z,18.01
2018-06-29T22:21:03.917Z,17.98
2018-06-29T22:23:32.202Z,17.99
2018-06-29T22:26:00.453Z,17.90
2018-06-29T22:28:28.717Z,17.85
2018-06-29T22:30:56.994Z,17.80
2018-06-29T22:33:25.268Z,17.87
2018-06-29T22:35:53.526Z,17.80
2018-06-29T22:38:21.861Z,17.78
2018-06-29T22:40:50.141Z,17.79
2018-06-29T22:43:18.434Z,17.76
2018-06-29T22:45:46.695Z,17.81
2018-06-29T22:48:15.017Z,17.80
2018-06-29T22:50:43.325Z,17.73
2018-06-29T22:53:11.601Z,17.75
2018-06-29T22:55:39.845Z,17.88
2018-06-29T22:58:08.272Z,17.80
2018-06-29T23:00:36.553Z,17.79
2018-06-29T23:03:06.724Z,17.80
2018-06-29T23:05:35.046Z,17.76
2018-06-29T23:08:03.353Z,17.76
2018-06-29T23:10:31.632Z,17.71
2018-06-29T23:12:59.889Z,17.73
2018-06-29T23:15:28.181Z,17.71
2018-06-29T23:17:56.541Z,17.72
2018-06-29T23:20:25.260Z,17.72
2018-06-29T23:22:53.824Z,17.68
2018-06-29T23:25:22.172Z,17.50
2018-06-29T23:27:50.411Z,17.56
2018-06-29T23:30:18.710Z,17.62
2018-06-29T23:32:46.969Z,17.64
2018-06-29T23:35:15.262Z,17.53
2018-06-29T23:37:43.513Z,17.49
2018-06-29T23:40:11.814Z,17.56
2018-06-29T23:42:41.026Z,17.55
2018-06-29T23:45:09.331Z,17.64
2018-06-29T23:47:37.775Z,17.52
2018-06-29T23:50:06.256Z,17.56
2018-06-29T23:52:34.590Z,17.62
2018-06-29T23:55:03.053Z,17.61
2018-06-29T23:57:32.382Z,17.58
